sensor_id;sensor_type;location;lat;lon;timestamp;temperature;humidity
48488;DHT22;34289;48.572;13.378;2022-12-18T00:01:39;-3.20;99.90
48488;DHT22;34289;48.572;13.378;2022-12-18T00:04:06;-3.50;99.90
48488;DHT22;34289;48.572;13.378;2022-12-18T00:06:32;-3.80;99.90
48488;DHT22;34289;48.572;13.378;2022-12-18T00:08:59;-3.30;99.90
48488;DHT22;34289;48.572;13.378;2022-12-18T00:11:27;-3.20;99.90
48488;DHT22;34289;48.572;13.378;2022-12-18T00:13:55;-3.20;99.90
48488;DHT22;34289;48.572;13.378;2022-12-18T00:16:22;-4.10;99.90
48488;DHT22;34289;48.572;13.378;2022-12-18T00:18:55;-3.10;99.90
48488;DHT22;34289;48.572;13.378;2022-12-18T00:21:25;-3.20;99.90
48488;DHT22;34289;48.572;13.378;2022-12-18T00:23:54;-3.20;99.90
48488;DHT22;34289;48.572;13.378;2022-12-18T00:26:22;-3.30;99.90
48488;DHT22;34289;48.572;13.378;2022-12-18T00:28:49;-3.20;99.90
48488;DHT22;34289;48.572;13.378;2022-12-18T00:31:17;-3.30;99.90
48488;DHT22;34289;48.572;13.378;2022-12-18T00:33:43;-3.10;99.90
48488;DHT22;34289;48.572;13.378;2022-12-18T00:36:24;-3.00;99.90
48488;DHT22;34289;48.572;13.378;2022-12-18T00:38:50;-3.60;99.90
48488;DHT22;34289;48.572;13.378;2022-12-18T00:41:17;-3.50;99.90
48488;DHT22;34289;48.572;13.378;2022-12-18T00:44:03;-3.20;99.90
48488;DHT22;34289;48.572;13.378;2022-12-18T00:46:29;-3.00;99.90
48488;DHT22;34289;48.572;13.378;2022-12-18T00:48:55;-2.90;99.90
48488;DHT22;34289;48.572;13.378;2022-12-18T00:51:20;-3.10;99.90
48488;DHT22;34289;48.572;13.378;2022-12-18T00:53:46;-3.20;99.90
48488;DHT22;34289;48.572;13.378;2022-12-18T00:56:11;-3.20;99.90
48488;DHT22;34289;48.572;13.378;2022-12-18T00:58:37;-3.30;99.90
48488;DHT22;34289;48.572;13.378;2022-12-18T01:01:06;-3.20;99.90
48488;DHT22;34289;48.572;13.378;2022-12-18T01:03:32;-3.50;99.90
48488;DHT22;34289;48.572;13.378;2022-12-18T01:05:58;-3.50;99.90
48488;DHT22;34289;48.572;13.378;2022-12-18T01:08:23;-3.60;99.90
48488;DHT22;34289;48.572;13.378;2022-12-18T01:10:49;-3.60;99.90
48488;DHT22;34289;48.572;13.378;2022-12-18T01:13:15;-4.10;99.90
48488;DHT22;34289;48.572;13.378;2022-12-18T01:15:47;-4.30;99.90
48488;DHT22;34289;48.572;13.378;2022-12-18T01:18:12;-4.30;99.90
48488;DHT22;34289;48.572;13.378;2022-12-18T01:20:38;-4.00;99.90
48488;DHT22;34289;48.572;13.378;2022-12-18T01:23:03;-3.70;99.90
48488;DHT22;34289;48.572;13.378;2022-12-18T01:25:29;-4.00;99.90
48488;DHT22;34289;48.572;13.378;2022-12-18T01:27:58;-3.70;99.90
48488;DHT22;34289;48.572;13.378;2022-12-18T01:30:23;-4.00;99.90
48488;DHT22;34289;48.572;13.378;2022-12-18T01:32:49;-3.70;99.90
48488;DHT22;34289;48.572;13.378;2022-12-18T01:35:15;-3.90;99.90
48488;DHT22;34289;48.572;13.378;2022-12-18T01:37:40;-4.60;99.90
48488;DHT22;34289;48.572;13.378;2022-12-18T01:40:06;-4.40;99.90
48488;DHT22;34289;48.572;13.378;2022-12-18T01:42:32;-4.80;99.90
48488;DHT22;34289;48.572;13.378;2022-12-18T01:45:05;-4.50;99.90
48488;DHT22;34289;48.572;13.378;2022-12-18T01:47:33;-4.80;99.90
48488;DHT22;34289;48.572;13.378;2022-12-18T01:50:48;-4.50;99.90
48488;DHT22;34289;48.572;13.378;2022-12-18T01:53:13;-4.90;99.90
48488;DHT22;34289;48.572;13.378;2022-12-18T01:55:47;-5.10;99.90
48488;DHT22;34289;48.572;13.378;2022-12-18T01:58:14;-4.30;99.90
48488;DHT22;34289;48.572;13.378;2022-12-18T02:00:40;-4.60;99.90
48488;DHT22;34289;48.572;13.378;2022-12-18T02:03:06;-4.40;99.90
48488;DHT22;34289;48.572;13.378;2022-12-18T02:11:01;-4.70;99.90
48488;DHT22;34289;48.572;13.378;2022-12-18T02:16:34;-5.20;99.90
48488;DHT22;34289;48.572;13.378;2022-12-18T02:21:54;-4.70;99.90
48488;DHT22;34289;48.572;13.378;2022-12-18T02:27:13;-5.20;99.90
48488;DHT22;34289;48.572;13.378;2022-12-18T02:29:53;-5.10;99.90
48488;DHT22;34289;48.572;13.378;2022-12-18T02:32:25;-5.50;99.90
48488;DHT22;34289;48.572;13.378;2022-12-18T02:34:55;-4.50;99.90
48488;DHT22;34289;48.572;13.378;2022-12-18T02:37:22;-4.50;99.90
48488;DHT22;34289;48.572;13.378;2022-12-18T02:39:49;-5.40;99.90
48488;DHT22;34289;48.572;13.378;2022-12-18T02:42:16;-5.10;99.90
48488;DHT22;34289;48.572;13.378;2022-12-18T02:44:51;-4.80;99.90
48488;DHT22;34289;48.572;13.378;2022-12-18T02:47:23;-4.70;99.90
48488;DHT22;34289;48.572;13.378;2022-12-18T02:52:53;-5.10;99.90
48488;DHT22;34289;48.572;13.378;2022-12-18T02:58:26;-5.10;99.90
48488;DHT22;34289;48.572;13.378;2022-12-18T03:01:14;-5.10;99.90
48488;DHT22;34289;48.572;13.378;2022-12-18T03:03:50;-5.10;99.90
48488;DHT22;34289;48.572;13.378;2022-12-18T03:06:24;-4.40;99.90
48488;DHT22;34289;48.572;13.378;2022-12-18T03:08:55;-4.70;99.90
48488;DHT22;34289;48.572;13.378;2022-12-18T03:11:21;-4.80;99.90
48488;DHT22;34289;48.572;13.378;2022-12-18T03:14:11;-4.90;99.90
48488;DHT22;34289;48.572;13.378;2022-12-18T03:16:42;-4.80;99.90
48488;DHT22;34289;48.572;13.378;2022-12-18T03:19:13;-5.10;99.90
48488;DHT22;34289;48.572;13.378;2022-12-18T03:21:55;-4.80;99.90
48488;DHT22;34289;48.572;13.378;2022-12-18T03:24:22;-4.70;99.90
48488;DHT22;34289;48.572;13.378;2022-12-18T03:26:52;-4.20;99.90
48488;DHT22;34289;48.572;13.378;2022-12-18T03:29:33;-5.00;99.90
48488;DHT22;34289;48.572;13.378;2022-12-18T03:32:38;-4.60;99.90
48488;DHT22;34289;48.572;13.378;2022-12-18T03:34:58;-5.10;99.90
48488;DHT22;34289;48.572;13.378;2022-12-18T03:37:25;-4.70;99.90
48488;DHT22;34289;48.572;13.378;2022-12-18T03:39:50;-4.80;99.90
48488;DHT22;34289;48.572;13.378;2022-12-18T03:42:44;-4.00;99.90
48488;DHT22;34289;48.572;13.378;2022-12-18T03:45:24;-5.00;99.90
48488;DHT22;34289;48.572;13.378;2022-12-18T03:48:14;-4.80;99.90
48488;DHT22;34289;48.572;13.378;2022-12-18T03:50:46;-4.40;99.90
48488;DHT22;34289;48.572;13.378;2022-12-18T03:53:38;-4.50;99.90
48488;DHT22;34289;48.572;13.378;2022-12-18T03:56:04;-5.10;99.90
48488;DHT22;34289;48.572;13.378;2022-12-18T03:58:33;-4.90;99.90
48488;DHT22;34289;48.572;13.378;2022-12-18T04:01:03;-4.90;99.90
48488;DHT22;34289;48.572;13.378;2022-12-18T04:03:32;-5.10;99.90
48488;DHT22;34289;48.572;13.378;2022-12-18T04:06:00;-4.50;99.90
48488;DHT22;34289;48.572;13.378;2022-12-18T04:08:26;-4.90;99.90
48488;DHT22;34289;48.572;13.378;2022-12-18T04:10:52;-4.40;99.90
48488;DHT22;34289;48.572;13.378;2022-12-18T04:13:23;-4.50;99.90
48488;DHT22;34289;48.572;13.378;2022-12-18T04:15:49;-4.20;99.90
48488;DHT22;34289;48.572;13.378;2022-12-18T04:18:15;-4.50;99.90
48488;DHT22;34289;48.572;13.378;2022-12-18T04:20:40;-4.30;99.90
48488;DHT22;34289;48.572;13.378;2022-12-18T04:23:06;-4.40;99.90
48488;DHT22;34289;48.572;13.378;2022-12-18T04:25:32;-4.40;99.90
48488;DHT22;34289;48.572;13.378;2022-12-18T04:28:00;-4.40;99.90
48488;DHT22;34289;48.572;13.378;2022-12-18T04:30:26;-4.80;99.90
48488;DHT22;34289;48.572;13.378;2022-12-18T04:32:51;-4.80;99.90
48488;DHT22;34289;48.572;13.378;2022-12-18T04:35:17;-4.60;99.90
48488;DHT22;34289;48.572;13.378;2022-12-18T04:37:43;-4.40;99.90
48488;DHT22;34289;48.572;13.378;2022-12-18T04:40:09;-4.90;99.90
48488;DHT22;34289;48.572;13.378;2022-12-18T04:42:34;-5.30;99.90
48488;DHT22;34289;48.572;13.378;2022-12-18T04:45:00;-4.90;99.90
48488;DHT22;34289;48.572;13.378;2022-12-18T04:47:26;-5.20;99.90
48488;DHT22;34289;48.572;13.378;2022-12-18T04:49:51;-4.70;99.90
48488;DHT22;34289;48.572;13.378;2022-12-18T04:52:17;-5.00;99.90
48488;DHT22;34289;48.572;13.378;2022-12-18T04:54:43;-4.70;99.90
48488;DHT22;34289;48.572;13.378;2022-12-18T04:57:08;-5.70;99.90
48488;DHT22;34289;48.572;13.378;2022-12-18T04:59:34;-4.90;99.90
48488;DHT22;34289;48.572;13.378;2022-12-18T05:01:59;-4.90;99.90
48488;DHT22;34289;48.572;13.378;2022-12-18T05:04:25;-5.00;99.90
48488;DHT22;34289;48.572;13.378;2022-12-18T05:06:51;-5.50;99.90
48488;DHT22;34289;48.572;13.378;2022-12-18T05:09:16;-4.50;99.90
48488;DHT22;34289;48.572;13.378;2022-12-18T05:11:42;-5.00;99.90
48488;DHT22;34289;48.572;13.378;2022-12-18T05:14:07;-4.90;99.90
48488;DHT22;34289;48.572;13.378;2022-12-18T05:16:33;-5.00;99.90
48488;DHT22;34289;48.572;13.378;2022-12-18T05:18:59;-4.70;99.90
48488;DHT22;34289;48.572;13.378;2022-12-18T05:21:24;-4.80;99.90
48488;DHT22;34289;48.572;13.378;2022-12-18T05:23:50;-4.80;99.90
48488;DHT22;34289;48.572;13.378;2022-12-18T05:26:17;-4.40;99.90
48488;DHT22;34289;48.572;13.378;2022-12-18T05:28:44;-4.60;99.90
48488;DHT22;34289;48.572;13.378;2022-12-18T05:31:10;-4.80;99.90
48488;DHT22;34289;48.572;13.378;2022-12-18T05:33:35;-4.60;99.90
48488;DHT22;34289;48.572;13.378;2022-12-18T05:36:03;-5.20;99.90
48488;DHT22;34289;48.572;13.378;2022-12-18T05:38:30;-5.50;99.90
48488;DHT22;34289;48.572;13.378;2022-12-18T05:40:56;-5.60;99.90
48488;DHT22;34289;48.572;13.378;2022-12-18T05:43:23;-5.10;99.90
48488;DHT22;34289;48.572;13.378;2022-12-18T05:45:50;-4.90;99.90
48488;DHT22;34289;48.572;13.378;2022-12-18T05:48:17;-5.20;99.90
48488;DHT22;34289;48.572;13.378;2022-12-18T05:50:44;-5.00;99.90
48488;DHT22;34289;48.572;13.378;2022-12-18T05:53:14;-5.00;99.90
48488;DHT22;34289;48.572;13.378;2022-12-18T05:55:41;-5.10;99.90
48488;DHT22;34289;48.572;13.378;2022-12-18T05:58:08;-5.80;99.90
48488;DHT22;34289;48.572;13.378;2022-12-18T06:00:36;-6.40;99.90
48488;DHT22;34289;48.572;13.378;2022-12-18T06:03:05;-6.40;99.90
48488;DHT22;34289;48.572;13.378;2022-12-18T06:05:35;-6.20;99.90
48488;DHT22;34289;48.572;13.378;2022-12-18T06:08:02;-5.60;99.90
48488;DHT22;34289;48.572;13.378;2022-12-18T06:10:27;-5.60;99.90
48488;DHT22;34289;48.572;13.378;2022-12-18T06:12:53;-6.00;99.90
48488;DHT22;34289;48.572;13.378;2022-12-18T06:15:18;-5.20;99.90
48488;DHT22;34289;48.572;13.378;2022-12-18T06:17:44;-6.00;99.90
48488;DHT22;34289;48.572;13.378;2022-12-18T06:20:09;-5.20;99.90
48488;DHT22;34289;48.572;13.378;2022-12-18T06:22:35;-6.00;99.90
48488;DHT22;34289;48.572;13.378;2022-12-18T06:25:01;-5.30;99.90
48488;DHT22;34289;48.572;13.378;2022-12-18T06:27:26;-6.10;99.90
48488;DHT22;34289;48.572;13.378;2022-12-18T06:29:52;-6.40;99.90
48488;DHT22;34289;48.572;13.378;2022-12-18T06:32:17;-5.50;99.90
48488;DHT22;34289;48.572;13.378;2022-12-18T06:34:43;-5.60;99.90
48488;DHT22;34289;48.572;13.378;2022-12-18T06:37:09;-5.90;99.90
48488;DHT22;34289;48.572;13.378;2022-12-18T06:39:34;-6.10;99.90
48488;DHT22;34289;48.572;13.378;2022-12-18T06:42:00;-5.40;99.90
48488;DHT22;34289;48.572;13.378;2022-12-18T06:44:26;-6.10;99.90
48488;DHT22;34289;48.572;13.378;2022-12-18T06:46:52;-5.90;99.90
48488;DHT22;34289;48.572;13.378;2022-12-18T06:49:17;-6.10;99.90
48488;DHT22;34289;48.572;13.378;2022-12-18T06:51:43;-5.70;99.90
48488;DHT22;34289;48.572;13.378;2022-12-18T06:54:08;-6.10;99.90
48488;DHT22;34289;48.572;13.378;2022-12-18T06:56:34;-6.60;99.90
48488;DHT22;34289;48.572;13.378;2022-12-18T06:59:00;-6.00;99.90
48488;DHT22;34289;48.572;13.378;2022-12-18T07:01:26;-6.00;99.90
48488;DHT22;34289;48.572;13.378;2022-12-18T07:03:56;-5.30;99.90
48488;DHT22;34289;48.572;13.378;2022-12-18T07:06:24;-5.30;99.90
48488;DHT22;34289;48.572;13.378;2022-12-18T07:08:50;-6.10;99.90
48488;DHT22;34289;48.572;13.378;2022-12-18T07:11:18;-5.80;99.90
48488;DHT22;34289;48.572;13.378;2022-12-18T07:13:44;-5.40;99.90
48488;DHT22;34289;48.572;13.378;2022-12-18T07:16:28;-5.40;99.90
48488;DHT22;34289;48.572;13.378;2022-12-18T07:18:55;-5.90;99.90
48488;DHT22;34289;48.572;13.378;2022-12-18T07:21:21;-5.40;99.90
48488;DHT22;34289;48.572;13.378;2022-12-18T07:23:47;-5.70;99.90
48488;DHT22;34289;48.572;13.378;2022-12-18T07:26:14;-5.10;99.90
48488;DHT22;34289;48.572;13.378;2022-12-18T07:28:41;-5.30;99.90
48488;DHT22;34289;48.572;13.378;2022-12-18T07:31:09;-5.20;99.90
48488;DHT22;34289;48.572;13.378;2022-12-18T07:33:35;-5.00;99.90
48488;DHT22;34289;48.572;13.378;2022-12-18T07:36:02;-5.50;99.90
48488;DHT22;34289;48.572;13.378;2022-12-18T07:38:29;-5.20;99.90
48488;DHT22;34289;48.572;13.378;2022-12-18T07:40:55;-5.10;99.90
48488;DHT22;34289;48.572;13.378;2022-12-18T07:43:25;-5.00;99.90
48488;DHT22;34289;48.572;13.378;2022-12-18T07:45:50;-5.30;99.90
48488;DHT22;34289;48.572;13.378;2022-12-18T07:48:16;-5.50;99.90
48488;DHT22;34289;48.572;13.378;2022-12-18T07:50:42;-5.30;99.90
48488;DHT22;34289;48.572;13.378;2022-12-18T07:53:07;-5.20;99.90
48488;DHT22;34289;48.572;13.378;2022-12-18T07:55:33;-5.00;99.90
48488;DHT22;34289;48.572;13.378;2022-12-18T07:58:03;-5.80;99.90
48488;DHT22;34289;48.572;13.378;2022-12-18T08:00:32;-4.90;99.90
48488;DHT22;34289;48.572;13.378;2022-12-18T08:02:57;-5.00;99.90
48488;DHT22;34289;48.572;13.378;2022-12-18T08:05:23;-5.10;99.90
48488;DHT22;34289;48.572;13.378;2022-12-18T08:07:49;-4.90;99.90
48488;DHT22;34289;48.572;13.378;2022-12-18T08:10:15;-5.00;99.90
48488;DHT22;34289;48.572;13.378;2022-12-18T08:12:43;-4.70;99.90
48488;DHT22;34289;48.572;13.378;2022-12-18T08:15:09;-4.90;99.90
48488;DHT22;34289;48.572;13.378;2022-12-18T08:17:35;-5.40;99.90
48488;DHT22;34289;48.572;13.378;2022-12-18T08:20:01;-5.20;99.90
48488;DHT22;34289;48.572;13.378;2022-12-18T08:22:26;-5.40;99.90
48488;DHT22;34289;48.572;13.378;2022-12-18T08:24:52;-4.50;99.90
48488;DHT22;34289;48.572;13.378;2022-12-18T08:27:17;-5.40;99.90
48488;DHT22;34289;48.572;13.378;2022-12-18T08:29:43;-5.70;99.90
48488;DHT22;34289;48.572;13.378;2022-12-18T08:32:10;-5.50;99.90
48488;DHT22;34289;48.572;13.378;2022-12-18T08:34:35;-5.30;99.90
48488;DHT22;34289;48.572;13.378;2022-12-18T08:37:01;-5.30;99.90
48488;DHT22;34289;48.572;13.378;2022-12-18T08:39:26;-5.40;99.90
48488;DHT22;34289;48.572;13.378;2022-12-18T08:41:52;-5.10;99.90
48488;DHT22;34289;48.572;13.378;2022-12-18T08:44:36;-5.00;99.90
48488;DHT22;34289;48.572;13.378;2022-12-18T08:47:08;-3.30;99.90
48488;DHT22;34289;48.572;13.378;2022-12-18T08:49:34;-5.40;99.90
48488;DHT22;34289;48.572;13.378;2022-12-18T08:52:00;-4.90;99.90
48488;DHT22;34289;48.572;13.378;2022-12-18T08:54:26;-4.50;99.90
48488;DHT22;34289;48.572;13.378;2022-12-18T08:56:52;-5.10;99.90
48488;DHT22;34289;48.572;13.378;2022-12-18T08:59:18;-4.70;99.90
48488;DHT22;34289;48.572;13.378;2022-12-18T09:01:44;-4.70;99.90
48488;DHT22;34289;48.572;13.378;2022-12-18T09:04:10;-4.80;99.90
48488;DHT22;34289;48.572;13.378;2022-12-18T09:06:39;-4.80;99.90
48488;DHT22;34289;48.572;13.378;2022-12-18T09:09:05;-4.60;99.90
48488;DHT22;34289;48.572;13.378;2022-12-18T09:11:32;-4.90;99.90
48488;DHT22;34289;48.572;13.378;2022-12-18T09:14:00;-4.80;99.90
48488;DHT22;34289;48.572;13.378;2022-12-18T09:16:26;-5.00;99.90
48488;DHT22;34289;48.572;13.378;2022-12-18T09:18:56;-5.40;99.90
48488;DHT22;34289;48.572;13.378;2022-12-18T09:21:26;-5.30;99.90
48488;DHT22;34289;48.572;13.378;2022-12-18T09:23:54;-5.00;99.90
48488;DHT22;34289;48.572;13.378;2022-12-18T09:26:21;-5.50;99.90
48488;DHT22;34289;48.572;13.378;2022-12-18T09:28:48;-5.60;99.90
48488;DHT22;34289;48.572;13.378;2022-12-18T09:31:14;-5.30;99.90
48488;DHT22;34289;48.572;13.378;2022-12-18T09:33:40;-4.90;99.90
48488;DHT22;34289;48.572;13.378;2022-12-18T09:36:08;-5.90;99.90
48488;DHT22;34289;48.572;13.378;2022-12-18T09:38:38;-5.50;99.90
48488;DHT22;34289;48.572;13.378;2022-12-18T09:43:55;-4.90;99.90
48488;DHT22;34289;48.572;13.378;2022-12-18T09:46:28;-4.80;99.90
48488;DHT22;34289;48.572;13.378;2022-12-18T09:48:59;-4.30;99.90
48488;DHT22;34289;48.572;13.378;2022-12-18T09:51:37;-4.10;99.90
48488;DHT22;34289;48.572;13.378;2022-12-18T09:54:12;-4.40;99.90
48488;DHT22;34289;48.572;13.378;2022-12-18T09:56:41;-4.00;99.90
48488;DHT22;34289;48.572;13.378;2022-12-18T09:59:58;-4.30;99.90
48488;DHT22;34289;48.572;13.378;2022-12-18T10:02:15;-4.00;99.90
48488;DHT22;34289;48.572;13.378;2022-12-18T10:04:41;-3.60;99.90
48488;DHT22;34289;48.572;13.378;2022-12-18T10:07:22;-3.80;99.90
48488;DHT22;34289;48.572;13.378;2022-12-18T10:10:13;-4.00;99.90
48488;DHT22;34289;48.572;13.378;2022-12-18T10:21:10;-3.90;99.90
48488;DHT22;34289;48.572;13.378;2022-12-18T10:26:24;-4.20;99.90
48488;DHT22;34289;48.572;13.378;2022-12-18T10:28:51;-4.50;99.90
48488;DHT22;34289;48.572;13.378;2022-12-18T10:31:21;-4.40;99.90
48488;DHT22;34289;48.572;13.378;2022-12-18T10:33:47;-4.70;99.90
48488;DHT22;34289;48.572;13.378;2022-12-18T10:36:13;-4.90;99.90
48488;DHT22;34289;48.572;13.378;2022-12-18T10:38:39;-4.10;99.90
48488;DHT22;34289;48.572;13.378;2022-12-18T10:41:22;-5.10;99.90
48488;DHT22;34289;48.572;13.378;2022-12-18T10:44:27;-5.40;99.90
48488;DHT22;34289;48.572;13.378;2022-12-18T10:46:55;-4.60;99.90
48488;DHT22;34289;48.572;13.378;2022-12-18T10:49:32;-4.30;99.90
48488;DHT22;34289;48.572;13.378;2022-12-18T10:52:18;-3.10;99.90
48488;DHT22;34289;48.572;13.378;2022-12-18T10:54:55;-4.00;99.90
48488;DHT22;34289;48.572;13.378;2022-12-18T10:59:57;-1.20;99.90
48488;DHT22;34289;48.572;13.378;2022-12-18T11:02:37;-3.50;99.90
48488;DHT22;34289;48.572;13.378;2022-12-18T11:07:51;-2.90;99.90
48488;DHT22;34289;48.572;13.378;2022-12-18T11:10:21;-3.00;99.90
48488;DHT22;34289;48.572;13.378;2022-12-18T11:12:47;-2.20;99.90
48488;DHT22;34289;48.572;13.378;2022-12-18T11:15:20;-0.70;99.90
48488;DHT22;34289;48.572;13.378;2022-12-18T11:17:47;-1.60;99.90
48488;DHT22;34289;48.572;13.378;2022-12-18T11:20:30;-1.20;99.90
48488;DHT22;34289;48.572;13.378;2022-12-18T11:23:10;-0.80;99.90
48488;DHT22;34289;48.572;13.378;2022-12-18T11:25:37;-0.50;99.90
48488;DHT22;34289;48.572;13.378;2022-12-18T11:28:24;-0.20;99.90
48488;DHT22;34289;48.572;13.378;2022-12-18T11:34:02;-0.60;99.90
48488;DHT22;34289;48.572;13.378;2022-12-18T11:36:33;-0.70;99.90
48488;DHT22;34289;48.572;13.378;2022-12-18T11:39:07;-0.60;99.90
48488;DHT22;34289;48.572;13.378;2022-12-18T11:41:41;-0.70;99.90
48488;DHT22;34289;48.572;13.378;2022-12-18T11:47:29;-0.30;99.90
48488;DHT22;34289;48.572;13.378;2022-12-18T11:50:00;-0.20;99.90
48488;DHT22;34289;48.572;13.378;2022-12-18T11:52:34;-0.30;99.90
48488;DHT22;34289;48.572;13.378;2022-12-18T11:55:32;-0.40;99.90
48488;DHT22;34289;48.572;13.378;2022-12-18T12:01:15;-0.30;99.90
48488;DHT22;34289;48.572;13.378;2022-12-18T12:15:05;-0.80;99.90
48488;DHT22;34289;48.572;13.378;2022-12-18T12:17:49;-0.70;99.90
48488;DHT22;34289;48.572;13.378;2022-12-18T12:25:51;-0.10;99.90
48488;DHT22;34289;48.572;13.378;2022-12-18T12:28:28;-0.20;99.90
48488;DHT22;34289;48.572;13.378;2022-12-18T12:36:51;0.00;99.90
48488;DHT22;34289;48.572;13.378;2022-12-18T12:39:22;-0.10;99.90
48488;DHT22;34289;48.572;13.378;2022-12-18T12:41:48;-0.10;99.90
48488;DHT22;34289;48.572;13.378;2022-12-18T12:44:39;0.00;99.90
48488;DHT22;34289;48.572;13.378;2022-12-18T12:47:19;-0.30;99.90
48488;DHT22;34289;48.572;13.378;2022-12-18T12:49:46;-0.50;99.90
48488;DHT22;34289;48.572;13.378;2022-12-18T12:54:53;-0.50;99.90
48488;DHT22;34289;48.572;13.378;2022-12-18T12:57:33;-0.30;99.90
48488;DHT22;34289;48.572;13.378;2022-12-18T13:08:03;-0.20;99.90
48488;DHT22;34289;48.572;13.378;2022-12-18T13:10:35;-0.40;99.90
48488;DHT22;34289;48.572;13.378;2022-12-18T13:13:04;-0.30;99.90
48488;DHT22;34289;48.572;13.378;2022-12-18T13:20:37;-0.40;99.90
48488;DHT22;34289;48.572;13.378;2022-12-18T13:25:56;-0.80;99.90
48488;DHT22;34289;48.572;13.378;2022-12-18T13:36:44;-1.40;99.90
48488;DHT22;34289;48.572;13.378;2022-12-18T13:41:45;-1.00;99.90
48488;DHT22;34289;48.572;13.378;2022-12-18T13:44:37;-0.50;99.90
48488;DHT22;34289;48.572;13.378;2022-12-18T13:47:31;-1.30;99.90
48488;DHT22;34289;48.572;13.378;2022-12-18T13:49:57;-1.40;99.90
48488;DHT22;34289;48.572;13.378;2022-12-18T13:52:36;-1.70;99.90
48488;DHT22;34289;48.572;13.378;2022-12-18T13:55:14;-1.70;99.90
48488;DHT22;34289;48.572;13.378;2022-12-18T13:57:41;-2.00;99.90
48488;DHT22;34289;48.572;13.378;2022-12-18T14:02:47;-2.20;99.90
48488;DHT22;34289;48.572;13.378;2022-12-18T14:05:26;-2.60;99.90
48488;DHT22;34289;48.572;13.378;2022-12-18T14:07:53;-2.70;99.90
48488;DHT22;34289;48.572;13.378;2022-12-18T14:10:20;-3.00;99.90
48488;DHT22;34289;48.572;13.378;2022-12-18T14:12:50;-3.10;99.90
48488;DHT22;34289;48.572;13.378;2022-12-18T14:17:56;-3.30;99.90
48488;DHT22;34289;48.572;13.378;2022-12-18T14:20:24;-3.50;99.90
48488;DHT22;34289;48.572;13.378;2022-12-18T14:22:50;-3.10;99.90
48488;DHT22;34289;48.572;13.378;2022-12-18T14:25:25;-3.60;99.90
48488;DHT22;34289;48.572;13.378;2022-12-18T14:33:09;-3.10;99.90
48488;DHT22;34289;48.572;13.378;2022-12-18T14:35:41;-3.70;99.90
48488;DHT22;34289;48.572;13.378;2022-12-18T14:40:42;-3.50;99.90
48488;DHT22;34289;48.572;13.378;2022-12-18T14:43:11;-3.60;99.90
48488;DHT22;34289;48.572;13.378;2022-12-18T14:45:39;-3.70;99.90
48488;DHT22;34289;48.572;13.378;2022-12-18T14:48:17;-3.70;99.90
48488;DHT22;34289;48.572;13.378;2022-12-18T14:50:43;-3.60;99.90
48488;DHT22;34289;48.572;13.378;2022-12-18T14:53:21;-3.50;99.90
48488;DHT22;34289;48.572;13.378;2022-12-18T14:55:48;-3.90;99.90
48488;DHT22;34289;48.572;13.378;2022-12-18T14:58:15;-3.80;99.90
48488;DHT22;34289;48.572;13.378;2022-12-18T15:00:43;-4.20;99.90
48488;DHT22;34289;48.572;13.378;2022-12-18T15:03:09;-4.30;99.90
48488;DHT22;34289;48.572;13.378;2022-12-18T15:05:35;-4.30;99.90
48488;DHT22;34289;48.572;13.378;2022-12-18T15:08:01;-4.30;99.90
48488;DHT22;34289;48.572;13.378;2022-12-18T15:10:34;-4.80;99.90
48488;DHT22;34289;48.572;13.378;2022-12-18T15:20:53;-5.20;99.90
48488;DHT22;34289;48.572;13.378;2022-12-18T15:23:21;-5.40;99.90
48488;DHT22;34289;48.572;13.378;2022-12-18T15:25:59;-5.40;99.90
48488;DHT22;34289;48.572;13.378;2022-12-18T15:28:31;-5.40;99.90
48488;DHT22;34289;48.572;13.378;2022-12-18T15:30:59;-5.90;99.90
48488;DHT22;34289;48.572;13.378;2022-12-18T15:33:29;-5.90;99.90
48488;DHT22;34289;48.572;13.378;2022-12-18T15:38:25;-5.70;99.90
48488;DHT22;34289;48.572;13.378;2022-12-18T15:40:54;-5.70;99.90
48488;DHT22;34289;48.572;13.378;2022-12-18T15:43:21;-6.00;99.90
48488;DHT22;34289;48.572;13.378;2022-12-18T15:46:04;-6.00;99.90
48488;DHT22;34289;48.572;13.378;2022-12-18T15:48:35;-5.90;99.90
48488;DHT22;34289;48.572;13.378;2022-12-18T15:51:05;-5.90;99.90
48488;DHT22;34289;48.572;13.378;2022-12-18T15:53:38;-5.90;99.90
48488;DHT22;34289;48.572;13.378;2022-12-18T15:56:05;-5.90;99.90
48488;DHT22;34289;48.572;13.378;2022-12-18T15:58:52;-6.00;99.90
48488;DHT22;34289;48.572;13.378;2022-12-18T16:01:20;-6.10;99.90
48488;DHT22;34289;48.572;13.378;2022-12-18T16:03:47;-6.00;99.90
48488;DHT22;34289;48.572;13.378;2022-12-18T16:06:13;-5.90;99.90
48488;DHT22;34289;48.572;13.378;2022-12-18T16:08:38;-6.00;99.90
48488;DHT22;34289;48.572;13.378;2022-12-18T16:11:04;-5.90;99.90
48488;DHT22;34289;48.572;13.378;2022-12-18T16:13:30;-6.00;99.90
48488;DHT22;34289;48.572;13.378;2022-12-18T16:15:56;-6.00;99.90
48488;DHT22;34289;48.572;13.378;2022-12-18T16:18:22;-6.00;99.90
48488;DHT22;34289;48.572;13.378;2022-12-18T16:20:47;-6.10;99.90
48488;DHT22;34289;48.572;13.378;2022-12-18T16:23:13;-6.20;99.90
48488;DHT22;34289;48.572;13.378;2022-12-18T16:25:39;-6.30;99.90
48488;DHT22;34289;48.572;13.378;2022-12-18T16:28:04;-6.20;99.90
48488;DHT22;34289;48.572;13.378;2022-12-18T16:30:31;-6.20;99.90
48488;DHT22;34289;48.572;13.378;2022-12-18T16:32:58;-6.50;99.90
48488;DHT22;34289;48.572;13.378;2022-12-18T16:35:24;-6.50;99.90
48488;DHT22;34289;48.572;13.378;2022-12-18T16:37:50;-6.60;99.90
48488;DHT22;34289;48.572;13.378;2022-12-18T16:40:17;-6.70;99.90
48488;DHT22;34289;48.572;13.378;2022-12-18T16:42:44;-6.80;99.90
48488;DHT22;34289;48.572;13.378;2022-12-18T16:45:13;-6.80;99.90
48488;DHT22;34289;48.572;13.378;2022-12-18T16:47:40;-6.90;99.90
48488;DHT22;34289;48.572;13.378;2022-12-18T16:50:06;-6.80;99.90
48488;DHT22;34289;48.572;13.378;2022-12-18T16:52:32;-6.90;99.90
48488;DHT22;34289;48.572;13.378;2022-12-18T16:54:58;-7.20;99.90
48488;DHT22;34289;48.572;13.378;2022-12-18T16:57:24;-7.50;99.90
48488;DHT22;34289;48.572;13.378;2022-12-18T16:59:49;-6.90;99.90
48488;DHT22;34289;48.572;13.378;2022-12-18T17:02:20;-7.70;99.90
48488;DHT22;34289;48.572;13.378;2022-12-18T17:04:46;-7.20;99.90
48488;DHT22;34289;48.572;13.378;2022-12-18T17:07:12;-7.50;99.90
48488;DHT22;34289;48.572;13.378;2022-12-18T17:09:38;-7.40;99.90
48488;DHT22;34289;48.572;13.378;2022-12-18T17:12:04;-7.30;99.90
48488;DHT22;34289;48.572;13.378;2022-12-18T17:14:31;-7.10;99.90
48488;DHT22;34289;48.572;13.378;2022-12-18T17:16:57;-7.80;99.90
48488;DHT22;34289;48.572;13.378;2022-12-18T17:19:25;-7.60;99.90
48488;DHT22;34289;48.572;13.378;2022-12-18T17:21:51;-7.00;99.90
48488;DHT22;34289;48.572;13.378;2022-12-18T17:24:17;-7.00;99.90
48488;DHT22;34289;48.572;13.378;2022-12-18T17:26:44;-6.80;99.90
48488;DHT22;34289;48.572;13.378;2022-12-18T17:29:14;-7.00;99.90
48488;DHT22;34289;48.572;13.378;2022-12-18T17:31:40;-7.10;99.90
48488;DHT22;34289;48.572;13.378;2022-12-18T17:34:08;-7.30;99.90